Terminal Aerodrome Forecast
Issued by NWS Des Moines, IA

Home | Current Version | Previous Version | Text Only | Print | Product List | Glossary On
Versions: 1 2 3 4 5 6 7 8 9 10 11 12 13 14 15 16 17 18 19 20 21 22 23 24 25 26 27 28 29 30
000
FTUS43 KDMX 292339
TAFDSM
TAF
KDSM 292339Z 3000/3024 23014KT P6SM FEW020 SCT150 OVC250
     FM300400 31011G16KT 6SM BR VCSH BKN011 OVC035
     FM300800 34013G18KT P6SM BKN015 OVC028
     FM301800 01016KT P6SM SCT026 BKN035=

USA.gov is the U.S. government's official web portal to all federal, state and local government web resources and services.